createdAt,value
2023-01-30T00:02:23.981Z,98769.35
2023-01-30T00:04:53.664Z,98764.59
2023-01-30T00:07:43.406Z,98761.48
2023-01-30T00:10:14.247Z,98757.56
2023-01-30T00:12:45.044Z,98758.64
2023-01-30T00:15:14.485Z,98765.19
2023-01-30T00:17:51.052Z,98762.45
2023-01-30T00:20:21.894Z,98765.15
2023-01-30T00:23:00.581Z,98760.33
2023-01-30T00:25:32.701Z,98759.48
2023-01-30T00:28:04.322Z,98754.05
2023-01-30T00:30:33.405Z,98754.39
2023-01-30T00:33:02.827Z,98761.77
2023-01-30T00:35:31.694Z,98764.95
2023-01-30T00:38:00.170Z,98762.23
2023-01-30T00:40:29.610Z,98763.37
2023-01-30T00:43:17.132Z,98766.26
2023-01-30T00:46:05.406Z,98764.71
2023-01-30T00:48:35.653Z,98766.80
2023-01-30T00:51:04.708Z,98764.55
2023-01-30T00:53:36.015Z,98760.77
2023-01-30T00:56:06.471Z,98760.17
2023-01-30T00:58:36.706Z,98754.55
2023-01-30T01:01:07.829Z,98749.98
2023-01-30T01:03:42.257Z,98747.39
2023-01-30T01:06:12.885Z,98748.22
2023-01-30T01:08:45.978Z,98747.38
2023-01-30T01:11:25.514Z,98749.38
2023-01-30T01:14:00.886Z,98749.67
2023-01-30T01:16:33.790Z,98749.69
2023-01-30T01:19:03.664Z,98747.68
2023-01-30T01:21:36.778Z,98745.38
2023-01-30T01:24:11.575Z,98748.93
2023-01-30T01:26:42.454Z,98751.85
2023-01-30T01:29:22.950Z,98745.20
2023-01-30T01:31:54.153Z,98746.33
2023-01-30T01:34:30.276Z,98743.54
2023-01-30T01:36:59.671Z,98747.55
2023-01-30T01:39:49.153Z,98747.98
2023-01-30T01:42:18.660Z,98745.81
2023-01-30T01:45:23.381Z,98742.96
2023-01-30T01:48:02.777Z,98743.16
2023-01-30T01:50:41.553Z,98742.34
2023-01-30T01:53:11.764Z,98742.77
2023-01-30T01:55:41.585Z,98745.09
2023-01-30T01:58:19.748Z,98743.08
2023-01-30T02:00:50.613Z,98741.32
2023-01-30T02:03:23.810Z,98741.02
2023-01-30T02:05:55.262Z,98738.95
2023-01-30T02:08:55.035Z,98741.59
2023-01-30T02:11:25.973Z,98744.31
2023-01-30T02:13:55.391Z,98741.63
2023-01-30T02:16:24.981Z,98735.46
2023-01-30T02:18:54.706Z,98731.27
2023-01-30T02:21:23.834Z,98731.20
2023-01-30T02:24:20.727Z,98727.69
2023-01-30T02:27:00.893Z,98723.42
2023-01-30T02:29:47.028Z,98719.66
2023-01-30T02:32:44.896Z,98718.02
2023-01-30T02:35:41.524Z,98708.17
2023-01-30T02:38:26.444Z,98705.55
2023-01-30T02:41:10.269Z,98707.02
2023-01-30T02:43:54.188Z,98705.14
2023-01-30T02:46:46.998Z,98708.02
2023-01-30T02:50:24.467Z,98713.35
2023-01-30T02:52:59.265Z,98708.98
2023-01-30T02:55:30.416Z,98707.95
2023-01-30T02:57:59.604Z,98707.21
2023-01-30T03:00:58.120Z,98704.20
2023-01-30T03:03:48.753Z,98701.42
2023-01-30T03:06:36.828Z,98700.25
2023-01-30T03:09:16.096Z,98698.23
2023-01-30T03:12:08.519Z,98695.65
2023-01-30T03:14:47.740Z,98693.49
2023-01-30T03:17:20.024Z,98697.89
2023-01-30T03:19:51.702Z,98699.13
2023-01-30T03:22:22.839Z,98706.08
2023-01-30T03:24:55.080Z,98710.94
2023-01-30T03:27:25.753Z,98724.48
2023-01-30T03:29:55.148Z,98736.77
2023-01-30T03:32:25.128Z,98745.85
2023-01-30T03:34:54.443Z,98749.25
2023-01-30T03:37:25.975Z,98751.27
2023-01-30T03:39:55.497Z,98754.98
2023-01-30T03:42:24.704Z,98761.50
2023-01-30T03:44:55.343Z,98767.68
2023-01-30T03:47:25.990Z,98769.50
2023-01-30T03:49:58.309Z,98776.64
2023-01-30T03:52:29.985Z,98784.30
2023-01-30T03:55:01.127Z,98794.14
2023-01-30T03:57:31.136Z,98803.88
2023-01-30T04:00:01.353Z,98815.02
2023-01-30T04:02:32.845Z,98820.27
2023-01-30T04:05:02.826Z,98834.48
2023-01-30T04:07:32.118Z,98838.35
2023-01-30T04:10:01.128Z,98839.84
2023-01-30T04:12:30.945Z,98839.42
2023-01-30T04:15:01.248Z,98841.50
2023-01-30T04:17:49.081Z,98844.23
2023-01-30T04:20:37.225Z,98841.51
2023-01-30T04:23:07.037Z,98842.68
2023-01-30T04:25:36.963Z,98843.70
2023-01-30T04:28:10.148Z,98844.70
2023-01-30T04:30:41.165Z,98847.87
2023-01-30T04:33:36.607Z,98850.61
2023-01-30T04:36:09.409Z,98846.99
2023-01-30T04:38:41.369Z,98842.86
2023-01-30T04:41:11.969Z,98845.16
2023-01-30T04:43:45.677Z,98850.98
2023-01-30T04:46:22.849Z,98851.64
2023-01-30T04:48:54.756Z,98848.13
2023-01-30T04:51:25.640Z,98845.40
2023-01-30T04:53:55.266Z,98840.27
2023-01-30T04:56:28.011Z,98833.52
2023-01-30T04:58:57.345Z,98826.00
2023-01-30T05:01:32.405Z,98818.28
2023-01-30T05:04:02.310Z,98807.92
2023-01-30T05:06:31.897Z,98799.56
2023-01-30T05:09:01.000Z,98795.41
2023-01-30T05:11:31.348Z,98790.40
2023-01-30T05:14:00.226Z,98790.02
2023-01-30T05:16:31.801Z,98784.98
2023-01-30T05:19:00.553Z,98780.67
2023-01-30T05:21:30.185Z,98776.48
2023-01-30T05:23:59.160Z,98777.17
2023-01-30T05:26:27.999Z,98780.72
2023-01-30T05:28:57.656Z,98784.42
2023-01-30T05:31:26.498Z,98786.36
2023-01-30T05:33:55.947Z,98796.68
2023-01-30T05:36:25.165Z,98800.05
2023-01-30T05:38:54.345Z,98804.59
2023-01-30T05:41:23.198Z,98803.30
2023-01-30T05:43:51.827Z,98801.95
2023-01-30T05:46:21.351Z,98796.17
2023-01-30T05:48:50.213Z,98788.21
2023-01-30T05:51:20.842Z,98782.83
2023-01-30T05:53:53.213Z,98746.71
2023-01-30T05:56:23.957Z,98706.95
2023-01-30T05:58:54.478Z,98672.11
2023-01-30T06:01:26.848Z,98641.70
2023-01-30T06:03:56.846Z,98608.82
2023-01-30T06:06:26.074Z,98585.29
2023-01-30T06:08:56.004Z,98575.56
2023-01-30T06:11:25.090Z,98577.44
2023-01-30T06:13:54.164Z,98577.55
2023-01-30T06:16:22.895Z,98577.95
2023-01-30T06:18:52.257Z,98579.27
2023-01-30T06:21:23.218Z,98578.86
2023-01-30T06:23:52.909Z,98578.37
2023-01-30T06:26:22.976Z,98584.53
2023-01-30T06:28:52.225Z,98592.48
2023-01-30T06:31:20.774Z,98588.31
2023-01-30T06:33:49.899Z,98590.27
2023-01-30T06:36:19.507Z,98588.40
2023-01-30T06:38:49.115Z,98590.63
2023-01-30T06:41:18.935Z,98588.69
2023-01-30T06:43:47.714Z,98585.10
2023-01-30T06:46:16.987Z,98583.98
2023-01-30T06:48:46.306Z,98578.13
2023-01-30T06:51:15.013Z,98573.79
2023-01-30T06:53:44.433Z,98567.16
2023-01-30T06:56:13.297Z,98560.15
2023-01-30T06:58:42.747Z,98555.77
2023-01-30T07:01:12.710Z,98560.46
2023-01-30T07:03:41.401Z,98562.16
2023-01-30T07:22:28.637Z,98631.52
2023-01-30T07:25:00.102Z,98556.61
2023-01-30T07:27:27.861Z,98559.86
2023-01-30T07:29:55.809Z,98562.94
2023-01-30T07:32:23.880Z,98567.17
2023-01-30T07:34:52.469Z,98578.65
2023-01-30T07:37:21.768Z,98587.70
2023-01-30T07:39:49.219Z,98599.42
2023-01-30T07:42:17.603Z,98608.25
2023-01-30T07:44:45.056Z,98622.57
2023-01-30T07:47:13.262Z,98654.50
2023-01-30T07:49:40.380Z,98701.57
2023-01-30T07:52:08.045Z,98762.81
2023-01-30T07:54:35.501Z,98814.65
2023-01-30T07:57:02.847Z,98855.81
2023-01-30T07:59:31.581Z,98904.84
2023-01-30T08:02:09.471Z,98952.96
2023-01-30T08:05:44.566Z,99011.54
2023-01-30T08:08:13.584Z,99082.48
2023-01-30T08:10:42.276Z,99125.77
2023-01-30T08:13:09.519Z,99208.52
2023-01-30T08:15:37.085Z,99284.38
2023-01-30T08:18:04.837Z,99336.95
2023-01-30T08:20:32.836Z,99397.63
2023-01-30T08:23:01.804Z,99432.27
2023-01-30T08:25:32.226Z,99468.46
2023-01-30T08:28:00.208Z,99502.28
2023-01-30T08:30:27.922Z,99543.23
2023-01-30T08:32:55.518Z,99579.61
2023-01-30T08:35:22.771Z,99625.89
2023-01-30T08:37:50.130Z,99669.36
2023-01-30T08:40:17.931Z,99722.52
2023-01-30T08:42:46.906Z,99747.31
2023-01-30T08:45:15.494Z,99756.48
2023-01-30T08:47:43.544Z,99770.84
2023-01-30T08:50:13.145Z,99779.08
2023-01-30T08:52:41.009Z,99785.84
2023-01-30T08:55:08.983Z,99800.38
2023-01-30T08:57:40.230Z,99811.38
2023-01-30T09:00:09.114Z,99817.89
2023-01-30T09:02:36.692Z,99812.39
2023-01-30T09:05:08.535Z,99819.15
2023-01-30T09:07:35.889Z,99827.42
2023-01-30T09:10:04.480Z,99833.33
2023-01-30T09:12:31.839Z,99833.26
2023-01-30T09:14:59.947Z,99839.88
2023-01-30T09:17:27.046Z,99833.35
2023-01-30T09:19:54.307Z,99828.85
2023-01-30T09:22:22.199Z,99823.24
2023-01-30T09:24:59.707Z,99823.98
2023-01-30T09:27:44.316Z,99817.98
2023-01-30T09:30:12.079Z,99810.77
2023-01-30T09:32:41.893Z,99812.59
2023-01-30T09:35:09.249Z,99803.62
2023-01-30T09:37:36.614Z,99791.52
2023-01-30T09:40:04.680Z,99785.17
2023-01-30T09:42:53.070Z,99777.39
2023-01-30T09:45:35.732Z,99766.64
2023-01-30T09:48:18.238Z,99757.23
2023-01-30T09:50:53.857Z,99749.64
2023-01-30T09:53:30.765Z,99744.25
2023-01-30T09:56:03.831Z,99740.39
2023-01-30T09:58:55.707Z,99735.86
2023-01-30T10:01:41.892Z,99728.32
2023-01-30T10:04:23.510Z,99717.50
2023-01-30T10:07:06.710Z,99710.61
2023-01-30T10:09:43.489Z,99704.84
2023-01-30T10:12:17.590Z,99697.73
2023-01-30T10:15:09.622Z,99693.75
2023-01-30T10:17:51.001Z,99687.27
2023-01-30T10:20:31.256Z,99679.13
2023-01-30T10:23:04.858Z,99673.52
2023-01-30T10:25:46.349Z,99669.41
2023-01-30T10:28:29.327Z,99659.36
2023-01-30T10:31:23.920Z,99654.86
2023-01-30T10:33:55.305Z,99642.95
2023-01-30T10:36:40.312Z,99623.65
2023-01-30T10:39:56.170Z,99607.90
2023-01-30T10:42:29.253Z,99593.06
2023-01-30T10:45:03.783Z,99586.92
2023-01-30T10:47:46.237Z,99581.79
2023-01-30T10:50:17.007Z,99583.02
2023-01-30T10:53:13.461Z,99575.23
2023-01-30T10:55:47.406Z,99571.45
2023-01-30T10:58:23.024Z,99564.02
2023-01-30T11:00:59.383Z,99564.36
2023-01-30T11:04:01.447Z,99559.67
2023-01-30T11:06:32.489Z,99552.83
2023-01-30T11:09:00.252Z,99552.92
2023-01-30T11:11:27.554Z,99554.16
2023-01-30T11:14:09.518Z,99553.38
2023-01-30T11:16:51.607Z,99546.02
2023-01-30T11:19:23.971Z,99541.54
2023-01-30T11:21:53.273Z,99536.72
2023-01-30T11:24:23.221Z,99530.21
2023-01-30T11:26:52.116Z,99536.02
2023-01-30T11:29:32.786Z,99532.03
2023-01-30T11:32:05.853Z,99524.36
2023-01-30T11:34:33.710Z,99522.90
2023-01-30T11:37:14.476Z,99523.20
2023-01-30T11:39:50.980Z,99515.30
2023-01-30T11:42:19.317Z,99504.22
2023-01-30T11:44:46.567Z,99501.55
2023-01-30T11:47:19.350Z,99492.59
2023-01-30T11:50:01.946Z,99490.89
2023-01-30T11:52:37.405Z,99492.79
2023-01-30T11:55:08.073Z,99497.28
2023-01-30T11:57:57.922Z,99497.32
2023-01-30T12:00:43.809Z,99503.27
2023-01-30T12:03:13.098Z,99504.77
2023-01-30T12:05:42.618Z,99503.13
2023-01-30T12:08:31.293Z,99501.59
2023-01-30T12:11:28.424Z,99497.21
2023-01-30T12:20:27.636Z,99479.88
2023-01-30T12:23:08.346Z,99470.33
2023-01-30T12:25:58.494Z,99466.02
2023-01-30T12:28:42.284Z,99456.70
2023-01-30T12:31:37.138Z,99454.25
2023-01-30T12:34:05.199Z,99433.83
2023-01-30T12:36:56.449Z,99419.30
2023-01-30T12:39:41.130Z,99406.52
2023-01-30T12:42:30.762Z,99387.59
2023-01-30T12:45:10.420Z,99364.55
2023-01-30T12:48:06.183Z,99322.14
2023-01-30T12:51:02.789Z,99284.16
2023-01-30T12:53:50.544Z,99244.56
2023-01-30T12:56:40.867Z,99217.74
2023-01-30T12:59:29.345Z,99199.90
2023-01-30T13:02:36.873Z,99179.27
2023-01-30T13:05:31.558Z,99153.27
2023-01-30T13:07:58.800Z,99136.33
2023-01-30T13:10:51.044Z,99135.08
2023-01-30T13:13:25.856Z,99132.66
2023-01-30T13:16:26.863Z,99124.15
2023-01-30T13:19:04.084Z,99121.91
2023-01-30T13:21:39.381Z,99111.31
2023-01-30T13:24:15.481Z,99101.45
2023-01-30T13:26:43.388Z,99099.14
2023-01-30T13:29:11.135Z,99102.23
2023-01-30T13:31:39.527Z,99107.67
2023-01-30T13:34:25.506Z,99116.51
2023-01-30T13:37:14.245Z,99137.94
2023-01-30T13:39:47.840Z,99150.29
2023-01-30T13:42:39.143Z,99163.25
2023-01-30T13:45:18.243Z,99172.30
2023-01-30T13:48:02.246Z,99182.21
2023-01-30T13:50:48.925Z,99192.54
2023-01-30T13:53:39.452Z,99201.67
2023-01-30T13:56:39.716Z,99217.89
2023-01-30T13:59:23.403Z,99226.51
2023-01-30T14:02:06.862Z,99226.52
2023-01-30T14:04:42.055Z,99232.79
2023-01-30T14:07:29.693Z,99236.70
2023-01-30T14:10:09.381Z,99238.48
2023-01-30T14:45:53.391Z,99429.83
2023-01-30T14:48:34.036Z,99426.27
2023-01-30T14:51:33.069Z,99423.86
2023-01-30T14:54:14.264Z,99431.64
2023-01-30T14:56:49.739Z,99435.14
2023-01-30T14:59:16.810Z,99447.02
2023-01-30T15:01:54.504Z,99444.02
2023-01-30T15:04:22.077Z,99439.02
2023-01-30T15:06:50.255Z,99434.13
2023-01-30T15:09:22.421Z,99426.55
2023-01-30T15:12:05.083Z,99417.96
2023-01-30T15:14:55.079Z,99405.02
2023-01-30T15:17:29.437Z,99389.06
2023-01-30T15:20:12.814Z,99370.29
2023-01-30T15:22:50.132Z,99365.77
2023-01-30T15:25:58.370Z,99356.61
2023-01-30T15:28:45.731Z,99341.70
2023-01-30T15:31:25.325Z,99326.52
2023-01-30T15:34:00.513Z,99316.20
2023-01-30T15:36:34.281Z,99308.70
2023-01-30T15:39:05.330Z,99296.98
2023-01-30T15:41:39.008Z,99280.02
2023-01-30T15:44:14.173Z,99258.05
2023-01-30T15:47:03.171Z,99244.39
2023-01-30T15:50:09.216Z,99230.65
2023-01-30T15:52:44.729Z,99219.41
2023-01-30T15:55:33.278Z,99210.80
2023-01-30T15:58:14.505Z,99194.14
2023-01-30T16:00:47.579Z,99186.31
2023-01-30T16:03:22.497Z,99179.18
2023-01-30T16:05:52.266Z,99168.69
2023-01-30T16:08:24.760Z,99161.09
2023-01-30T16:10:52.531Z,99151.84
2023-01-30T16:13:22.925Z,99147.17
2023-01-30T16:15:50.516Z,99136.02
2023-01-30T16:18:21.398Z,99126.43
2023-01-30T16:21:11.386Z,99119.84
2023-01-30T16:23:51.567Z,99112.61
2023-01-30T16:26:23.277Z,99105.88
2023-01-30T16:28:51.622Z,99097.87
2023-01-30T16:31:19.067Z,99083.91
2023-01-30T16:33:50.914Z,99073.56
2023-01-30T16:36:21.273Z,99067.15
2023-01-30T16:38:52.619Z,99059.48
2023-01-30T16:41:39.022Z,99052.73
2023-01-30T16:44:22.074Z,99043.52
2023-01-30T16:47:04.962Z,99039.71
2023-01-30T16:49:35.583Z,99028.34
2023-01-30T16:52:05.706Z,99025.67
2023-01-30T16:54:34.831Z,99019.92
2023-01-30T16:57:03.032Z,99011.59
2023-01-30T16:59:33.404Z,99001.80
2023-01-30T17:02:02.393Z,98999.52
2023-01-30T17:04:33.337Z,98985.02
2023-01-30T17:07:03.711Z,98981.61
2023-01-30T17:09:45.507Z,98972.70
2023-01-30T17:12:25.352Z,98955.06
2023-01-30T17:15:17.316Z,98946.27
2023-01-30T17:17:47.202Z,98925.27
2023-01-30T17:20:18.245Z,98903.94
2023-01-30T17:22:47.174Z,98884.50
2023-01-30T17:25:18.558Z,98869.36
2023-01-30T17:27:46.040Z,98852.61
2023-01-30T17:30:17.274Z,98836.35
2023-01-30T17:32:44.517Z,98818.65
2023-01-30T17:35:12.048Z,98802.67
2023-01-30T17:37:41.849Z,98790.68
2023-01-30T17:40:20.533Z,98774.90
2023-01-30T17:42:48.203Z,98756.60
2023-01-30T17:45:15.752Z,98744.70
2023-01-30T17:47:43.082Z,98725.96
2023-01-30T17:50:14.165Z,98701.21
2023-01-30T17:52:41.868Z,98679.30
2023-01-30T17:55:13.208Z,98654.75
2023-01-30T17:57:43.017Z,98635.27
2023-01-30T18:00:20.691Z,98614.40
2023-01-30T18:02:49.017Z,98593.96
2023-01-30T18:05:21.965Z,98577.77
2023-01-30T18:07:49.774Z,98566.61
2023-01-30T18:10:18.911Z,98557.13
2023-01-30T18:12:46.911Z,98546.29
2023-01-30T18:15:15.078Z,98541.65
2023-01-30T18:17:46.819Z,98529.19
2023-01-30T18:20:17.086Z,98528.30
2023-01-30T18:22:44.715Z,98525.23
2023-01-30T18:25:15.142Z,98521.69
2023-01-30T18:27:43.622Z,98519.35
2023-01-30T18:30:13.112Z,98511.86
2023-01-30T18:32:52.047Z,98506.25
2023-01-30T18:35:22.223Z,98499.98
2023-01-30T18:37:49.869Z,98494.98
2023-01-30T18:40:19.504Z,98487.45
2023-01-30T18:42:47.069Z,98483.94
2023-01-30T18:45:14.280Z,98476.92
2023-01-30T18:47:42.332Z,98474.73
2023-01-30T18:50:10.548Z,98471.46
2023-01-30T18:52:37.873Z,98461.16
2023-01-30T18:55:06.253Z,98455.56
2023-01-30T18:57:34.017Z,98453.39
2023-01-30T19:00:01.091Z,98448.91
2023-01-30T19:02:32.501Z,98448.77
2023-01-30T19:04:59.842Z,98441.77
2023-01-30T19:07:27.094Z,98435.60
2023-01-30T19:09:54.652Z,98432.39
2023-01-30T19:12:42.256Z,98424.45
2023-01-30T19:15:10.271Z,98415.52
2023-01-30T19:17:39.348Z,98413.16
2023-01-30T19:20:10.485Z,98412.67
2023-01-30T19:22:38.999Z,98409.16
2023-01-30T19:25:09.466Z,98406.69
2023-01-30T19:27:56.906Z,98401.72
2023-01-30T19:30:24.178Z,98399.36
2023-01-30T19:32:53.997Z,98399.78
2023-01-30T19:35:21.324Z,98392.16
2023-01-30T19:37:49.012Z,98386.04
2023-01-30T19:40:16.474Z,98385.10
2023-01-30T19:42:44.704Z,98380.20
2023-01-30T19:45:12.006Z,98376.13
2023-01-30T19:47:44.162Z,98379.55
2023-01-30T19:50:11.724Z,98375.87
2023-01-30T19:52:40.402Z,98378.88
2023-01-30T19:55:08.472Z,98381.42
2023-01-30T19:57:35.679Z,98387.29
2023-01-30T20:00:04.699Z,98400.77
2023-01-30T20:02:31.997Z,98410.82
2023-01-30T20:04:59.131Z,98417.69
2023-01-30T20:07:26.439Z,98421.35
2023-01-30T20:09:53.932Z,98426.97
2023-01-30T20:12:21.811Z,98440.39
2023-01-30T20:14:49.108Z,98450.80
2023-01-30T20:17:16.207Z,98464.88
2023-01-30T20:19:43.720Z,98475.71
2023-01-30T20:22:11.004Z,98480.16
2023-01-30T20:24:39.591Z,98485.98
2023-01-30T20:27:06.992Z,98492.95
2023-01-30T20:29:34.083Z,98494.63
2023-01-30T20:32:03.682Z,98498.14
2023-01-30T20:34:31.563Z,98501.17
2023-01-30T20:36:59.611Z,98501.14
2023-01-30T20:39:26.709Z,98498.83
2023-01-30T20:41:53.851Z,98496.17
2023-01-30T20:44:21.405Z,98499.36
2023-01-30T20:46:49.276Z,98495.07
2023-01-30T20:49:18.823Z,98498.27
2023-01-30T20:51:46.507Z,98498.69
2023-01-30T20:54:14.129Z,98496.39
2023-01-30T20:56:48.906Z,98488.98
2023-01-30T20:59:17.935Z,98488.21
2023-01-30T21:01:45.381Z,98483.63
2023-01-30T21:04:14.152Z,98479.59
2023-01-30T21:06:45.432Z,98475.04
2023-01-30T21:09:20.272Z,98480.05
2023-01-30T21:11:49.044Z,98477.41
2023-01-30T21:14:17.022Z,98476.82
2023-01-30T21:16:44.628Z,98475.64
2023-01-30T21:19:16.370Z,98476.84
2023-01-30T21:21:52.962Z,98473.27
2023-01-30T21:24:25.601Z,98473.91
2023-01-30T21:26:53.192Z,98474.05
2023-01-30T21:29:22.311Z,98475.13
2023-01-30T21:31:49.702Z,98472.86
2023-01-30T21:34:17.147Z,98469.45
2023-01-30T21:37:04.240Z,98467.79
2023-01-30T21:39:53.133Z,98460.74
2023-01-30T21:42:39.387Z,98464.81
2023-01-30T21:45:07.117Z,98458.13
2023-01-30T21:47:34.452Z,98460.04
2023-01-30T21:50:01.718Z,98456.15
2023-01-30T21:52:32.204Z,98453.98
2023-01-30T21:54:59.736Z,98447.44
2023-01-30T21:57:27.213Z,98443.86
2023-01-30T21:59:54.337Z,98435.02
2023-01-30T22:02:21.489Z,98430.04
2023-01-30T22:04:48.707Z,98424.36
2023-01-30T22:07:15.755Z,98423.54
2023-01-30T22:09:43.027Z,98419.02
2023-01-30T22:12:10.567Z,98415.27
2023-01-30T22:14:38.013Z,98412.08
2023-01-30T22:17:05.857Z,98405.80
